Time;durP1;ratioP1;P1;durP2;ratioP2;P2;SDS_P1;SDS_P2;PMS_P1;PMS_P2;Temp;Humidity;BMP_temperature;BMP_pressure;BME280_temperature;BME280_humidity;BME280_pressure;Samples;Min_cycle;Max_cycle;Signal;HPM_P1;HPM_P2
2023/12/03 00:00:07;;;;;;;1.83;1.48;;;;;;;-2.55;70.99;95293.97;6245942;28;20049;-74
2023/12/03 00:03:13;;;;;;;1.67;1.58;;;;;;;-2.75;71.04;95282.69;6228368;28;20049;-73
2023/12/03 00:06:17;;;;;;;1.65;1.48;;;;;;;-2.89;71.58;95274.66;6228491;28;20037;-73
2023/12/03 00:09:19;;;;;;;1.70;1.42;;;;;;;-2.89;71.25;95279.78;6245114;28;20049;-73
2023/12/03 00:12:23;;;;;;;1.52;1.40;;;;;;;-3.04;71.89;95272.66;6244984;28;20075;-73
2023/12/03 00:15:25;;;;;;;3.92;1.67;;;;;;;-3.09;71.52;95267.69;6245126;28;20192;-74
2023/12/03 00:18:29;;;;;;;1.60;1.33;;;;;;;-3.24;71.68;95276.81;6245882;28;20052;-73
2023/12/03 00:21:34;;;;;;;1.15;0.93;;;;;;;-3.22;71.20;95277.59;6244857;28;20041;-73
2023/12/03 00:24:38;;;;;;;1.50;1.38;;;;;;;-3.25;71.09;95288.00;6245339;28;20049;-73
2023/12/03 00:27:40;;;;;;;1.92;1.25;;;;;;;-3.62;71.31;95280.75;6244948;28;20049;-72
2023/12/03 00:30:43;;;;;;;3.05;1.50;;;;;;;-3.39;71.34;95290.22;6210731;28;20411;-73
2023/12/03 00:33:48;;;;;;;2.22;1.40;;;;;;;-3.41;71.47;95323.69;6228365;28;20049;-74
2023/12/03 00:36:52;;;;;;;0.80;0.80;;;;;;;-3.37;71.46;95309.00;6245462;28;20049;-73
2023/12/03 00:39:56;;;;;;;1.30;1.20;;;;;;;-3.43;71.60;95314.34;6245638;28;20057;-73
2023/12/03 00:42:59;;;;;;;;;;;;;;;-3.39;71.54;95327.06;6245504;28;20045;-72
2023/12/03 00:46:06;;;;;;;3.67;1.40;;;;;;;-3.64;72.41;95321.09;6245120;28;19927;-73
2023/12/03 00:49:08;;;;;;;2.10;1.50;;;;;;;-3.67;72.48;95332.31;6244757;28;20081;-74
2023/12/03 00:52:09;;;;;;;2.70;1.13;;;;;;;-3.79;72.54;95340.44;6244742;28;20052;-74
2023/12/03 00:55:16;;;;;;;1.92;1.40;;;;;;;-3.74;72.59;95371.97;6244768;28;20041;-73
2023/12/03 00:58:21;;;;;;;1.23;1.00;;;;;;;-3.77;72.80;95369.50;6244887;28;20052;-74
2023/12/03 01:01:28;;;;;;;1.42;1.33;;;;;;;-3.92;72.74;95375.16;6245032;28;20037;-74
2023/12/03 01:04:33;;;;;;;1.83;1.50;;;;;;;-4.06;73.38;95380.72;6244251;28;20049;-74
2023/12/03 01:07:34;;;;;;;1.00;0.85;;;;;;;-3.97;73.33;95416.38;6244325;28;20045;-74
2023/12/03 01:10:38;;;;;;;1.30;1.20;;;;;;;-4.02;72.93;95423.41;6227438;28;20406;-73
2023/12/03 01:13:43;;;;;;;2.08;1.10;;;;;;;-3.79;72.70;95439.81;6244584;28;20037;-73
2023/12/03 01:16:46;;;;;;;1.75;1.20;;;;;;;-3.70;72.56;95444.69;6243010;28;20053;-73
2023/12/03 01:19:53;;;;;;;1.50;1.17;;;;;;;-3.89;72.84;95464.97;6243669;28;20052;-73
2023/12/03 01:22:56;;;;;;;2.10;1.30;;;;;;;-3.91;72.77;95471.88;6244488;28;20215;-73
2023/12/03 01:26:00;;;;;;;1.60;1.20;;;;;;;-3.91;73.16;95471.88;6244739;28;20041;-73
2023/12/03 01:29:09;;;;;;;1.75;1.65;;;;;;;-3.79;73.04;95486.09;6226824;28;20053;-73
2023/12/03 01:32:16;;;;;;;1.55;1.30;;;;;;;-3.68;72.71;95492.59;6244548;28;20041;-74
2023/12/03 01:35:22;;;;;;;2.05;1.40;;;;;;;-3.63;72.98;95498.41;6244443;28;20037;-74
2023/12/03 01:38:23;;;;;;;;;;;;;;;-3.56;72.27;95503.38;6244092;28;20045;-72
2023/12/03 01:41:29;;;;;;;1.65;1.15;;;;;;;-3.49;72.74;95520.28;6244186;28;19920;-73
2023/12/03 01:44:36;;;;;;;5.22;1.23;;;;;;;-3.30;71.98;95523.97;6244295;28;20041;-73
2023/12/03 01:47:45;;;;;;;1.83;1.35;;;;;;;-3.24;71.34;95536.63;6244501;28;20038;-73
2023/12/03 01:50:49;;;;;;;1.90;1.00;;;;;;;-3.21;71.48;95540.81;6243238;28;20045;-72
2023/12/03 01:53:51;;;;;;;1.23;0.90;;;;;;;-3.07;70.71;95566.13;6244131;28;20050;-73
2023/12/03 01:56:55;;;;;;;1.95;1.20;;;;;;;-3.18;70.78;95562.13;6243817;28;20135;-75
2023/12/03 01:59:59;;;;;;;1.55;1.30;;;;;;;-3.56;70.92;95511.09;6243295;28;20053;-74
2023/12/03 02:03:05;;;;;;;6.05;3.55;;;;;;;-3.18;71.08;95592.19;6244014;28;20051;-73
2023/12/03 02:06:10;;;;;;;2.70;1.25;;;;;;;-3.11;71.66;95597.97;6244140;28;20041;-73
2023/12/03 02:09:16;;;;;;;1.63;1.23;;;;;;;-3.04;71.37;95605.44;6243936;28;20042;-73
2023/12/03 02:12:19;;;;;;;2.78;1.33;;;;;;;-3.07;70.40;95617.56;6243479;28;20164;-72
2023/12/03 02:15:23;;;;;;;2.58;1.80;;;;;;;-3.03;70.68;95632.00;6226822;28;20037;-73
2023/12/03 02:18:27;;;;;;;;;;;;;;;-3.02;70.46;95628.56;6244398;28;20037;-72
2023/12/03 02:21:53;;;;;;;2.17;1.40;;;;;;;-2.87;69.31;95648.66;6213329;28;20007;-74
2023/12/03 02:25:00;;;;;;;2.15;1.50;;;;;;;-3.02;69.29;95639.69;6243727;28;20053;-74
2023/12/03 02:28:05;;;;;;;3.22;1.27;;;;;;;-3.12;69.18;95647.75;6243316;28;20041;-74
2023/12/03 02:31:06;;;;;;;1.85;1.50;;;;;;;-3.20;69.28;95656.56;6246978;28;20045;-73
2023/12/03 02:34:13;;;;;;;2.92;1.45;;;;;;;-3.31;69.25;95663.75;6248261;28;20045;-73
2023/12/03 02:37:14;;;;;;;1.83;1.20;;;;;;;-3.40;69.56;95670.03;6229611;28;20050;-73
2023/12/03 02:40:18;;;;;;;;;;;;;;;-3.40;68.58;95684.59;6248407;28;20049;-73
2023/12/03 02:43:21;;;;;;;2.28;1.40;;;;;;;-3.46;68.17;95684.75;6247169;28;19927;-74
2023/12/03 02:46:25;;;;;;;1.67;1.38;;;;;;;-3.35;67.37;95697.31;6230054;28;20049;-73
2023/12/03 02:49:30;;;;;;;2.15;1.55;;;;;;;-3.52;67.69;95702.94;6247706;28;20053;-73
2023/12/03 02:52:31;;;;;;;1.67;1.48;;;;;;;-3.65;67.87;95711.00;6246897;28;20054;-73
2023/12/03 02:55:35;;;;;;;1.55;1.27;;;;;;;-3.74;67.75;95695.81;6247545;28;20130;-74
2023/12/03 02:58:37;;;;;;;1.40;1.30;;;;;;;-3.68;67.27;95705.09;6246562;28;20458;-74
2023/12/03 03:01:41;;;;;;;1.63;1.10;;;;;;;-3.79;66.97;95674.56;6246502;28;20045;-74
2023/12/03 03:04:45;;;;;;;2.17;1.45;;;;;;;-3.89;67.03;95678.28;6247398;28;20507;-74
2023/12/03 03:07:50;;;;;;;2.22;1.40;;;;;;;-3.99;67.33;95659.69;6247074;28;20044;-73
2023/12/03 03:10:58;;;;;;;1.35;1.25;;;;;;;-3.99;67.14;95698.25;6246182;28;20495;-74
2023/12/03 03:14:01;;;;;;;1.50;1.40;;;;;;;-3.86;66.50;95665.34;6246603;28;20045;-73
2023/12/03 03:17:09;;;;;;;1.20;0.98;;;;;;;-3.92;66.49;95680.94;6247027;28;20453;-73
2023/12/03 03:20:15;;;;;;;2.45;1.40;;;;;;;-4.03;66.96;95708.63;6247037;28;20057;-73
2023/12/03 03:23:20;;;;;;;2.17;1.30;;;;;;;-3.99;66.27;95669.13;6246359;28;20118;-73
2023/12/03 03:26:21;;;;;;;2.05;1.45;;;;;;;-4.14;66.00;95624.13;6247369;28;20048;-75
2023/12/03 03:29:27;;;;;;;1.55;1.42;;;;;;;-4.10;66.40;95656.59;6246276;28;20041;-73
2023/12/03 03:32:32;;;;;;;1.77;1.33;;;;;;;-4.00;65.93;95727.38;6246326;28;20423;-73
2023/12/03 03:35:40;;;;;;;2.22;1.30;;;;;;;-3.99;66.37;95679.38;6246580;28;20041;-74
2023/12/03 03:38:44;;;;;;;1.83;1.52;;;;;;;-4.12;66.94;95699.44;6246585;28;20104;-73
2023/12/03 03:41:51;;;;;;;3.97;1.60;;;;;;;-4.18;67.14;95718.44;6246117;28;20042;-74
2023/12/03 03:44:58;;;;;;;2.88;1.55;;;;;;;-4.20;67.68;95709.91;6246421;28;20503;-73
2023/12/03 03:48:00;;;;;;;2.92;1.65;;;;;;;-4.16;67.38;95697.81;6228137;28;20050;-73
2023/12/03 03:51:10;;;;;;;5.47;1.90;;;;;;;-4.21;67.53;95736.50;6227914;28;20045;-73
2023/12/03 03:54:12;;;;;;;4.15;2.15;;;;;;;-4.49;68.92;95690.09;6246021;28;20520;-73
2023/12/03 03:57:18;;;;;;;3.80;1.98;;;;;;;-4.61;69.49;95719.50;6228325;28;20069;-73
2023/12/03 04:00:25;;;;;;;2.22;1.70;;;;;;;-4.70;69.43;95731.69;6227982;28;20045;-74
2023/12/03 04:03:27;;;;;;;2.45;2.20;;;;;;;-4.76;69.64;95686.47;6245465;28;20473;-73
2023/12/03 04:06:28;;;;;;;5.18;2.75;;;;;;;-4.68;68.32;95756.44;6227200;28;20049;-73
2023/12/03 04:09:35;;;;;;;3.00;2.17;;;;;;;-4.91;68.78;95769.78;6246106;28;20423;-74
2023/12/03 04:12:42;;;;;;;1.90;1.80;;;;;;;-4.94;69.29;95776.72;6228935;28;20049;-73
2023/12/03 04:15:46;;;;;;;2.78;2.17;;;;;;;-4.89;68.26;95793.72;6244716;28;20415;-74
2023/12/03 04:18:50;;;;;;;2.67;2.47;;;;;;;-5.15;69.31;95822.47;6245767;28;20049;-74
2023/12/03 04:21:54;;;;;;;4.43;2.28;;;;;;;-5.12;68.28;95827.53;6245543;28;20041;-74
2023/12/03 04:25:01;;;;;;;3.70;2.58;;;;;;;-5.08;68.11;95849.69;6245606;28;20072;-74
2023/12/03 04:28:03;;;;;;;4.50;2.65;;;;;;;-5.22;68.53;95867.91;6244512;28;20053;-74
2023/12/03 04:31:05;;;;;;;3.38;2.40;;;;;;;-5.23;68.52;95888.47;6244711;28;20045;-74
2023/12/03 04:34:12;;;;;;;4.78;2.92;;;;;;;-5.05;67.85;95930.84;6228518;28;20045;-73
2023/12/03 04:37:17;;;;;;;3.67;2.55;;;;;;;-4.94;67.56;95940.91;6244574;28;20049;-72
2023/12/03 04:40:19;;;;;;;4.90;3.05;;;;;;;-4.85;66.80;95956.97;6243816;28;20183;-74
2023/12/03 04:43:25;;;;;;;5.33;2.60;;;;;;;-4.78;67.14;95952.59;6244195;28;20431;-74
2023/12/03 04:46:28;;;;;;;5.22;2.70;;;;;;;-4.73;66.74;95953.31;6244981;28;20049;-73
2023/12/03 04:49:30;;;;;;;5.63;2.72;;;;;;;-4.74;66.17;95982.44;6244906;28;20037;-73
2023/12/03 04:52:34;;;;;;;4.47;2.80;;;;;;;-4.85;65.68;96004.88;6226209;28;20404;-75
2023/12/03 04:55:41;;;;;;;3.63;2.88;;;;;;;-5.01;65.88;96014.56;6244583;28;20499;-74
2023/12/03 04:58:45;;;;;;;5.47;2.92;;;;;;;-5.10;66.22;96015.56;6244170;28;20072;-73
2023/12/03 05:01:49;;;;;;;6.85;3.40;;;;;;;-5.08;65.98;96034.34;6244289;28;20071;-74
2023/12/03 05:04:53;;;;;;;8.32;4.35;;;;;;;-5.04;65.61;96046.28;6244533;28;20148;-75
2023/12/03 05:07:59;;;;;;;5.13;3.42;;;;;;;-4.99;65.14;96049.59;6243724;28;20060;-74
2023/12/03 05:11:05;;;;;;;5.45;3.28;;;;;;;-4.96;65.08;96034.13;6244320;28;20049;-74
2023/12/03 05:14:12;;;;;;;6.75;3.97;;;;;;;-5.04;64.88;96020.63;6244359;28;20048;-74
2023/12/03 05:17:17;;;;;;;3.67;2.70;;;;;;;-4.96;65.01;96043.56;6243667;28;20054;-74
2023/12/03 05:20:20;;;;;;;5.45;3.17;;;;;;;-5.01;64.62;96020.56;6244491;28;20045;-73
2023/12/03 05:23:23;;;;;;;3.90;2.78;;;;;;;-5.04;64.78;96030.88;6243265;28;20064;-74
2023/12/03 05:26:25;;;;;;;4.05;2.72;;;;;;;-5.05;64.17;96038.59;6243398;28;20259;-74
2023/12/03 05:29:30;;;;;;;4.93;3.22;;;;;;;-5.19;64.50;96041.38;6243423;28;20045;-74
2023/12/03 05:32:34;;;;;;;3.83;2.75;;;;;;;-5.06;64.69;96063.41;6244001;28;20045;-75
2023/12/03 05:35:37;;;;;;;;;;;;;;;-5.08;64.28;96036.94;6244765;28;20076;-73
2023/12/03 05:38:42;;;;;;;5.75;3.17;;;;;;;-5.05;63.99;96075.34;6243411;28;20041;-73
2023/12/03 05:41:44;;;;;;;4.32;2.72;;;;;;;-5.17;64.11;96057.59;6225911;28;20427;-73
2023/12/03 05:44:45;;;;;;;3.80;2.97;;;;;;;-5.12;63.77;96073.78;6243236;28;20148;-73
2023/12/03 05:47:52;;;;;;;4.85;3.20;;;;;;;-5.12;64.00;96089.16;6244322;28;20041;-74
2023/12/03 05:50:56;;;;;;;4.05;2.85;;;;;;;-5.16;64.25;96097.75;6226759;28;20124;-74
2023/12/03 05:54:02;;;;;;;4.45;2.88;;;;;;;-5.14;64.24;96105.44;6243273;28;20045;-73
2023/12/03 05:57:08;;;;;;;3.65;2.85;;;;;;;-5.15;63.76;96102.03;6243805;28;20554;-74
2023/12/03 06:00:11;;;;;;;4.10;2.40;;;;;;;-5.14;63.28;96121.69;6226003;28;20045;-74
2023/12/03 06:03:18;;;;;;;3.97;3.10;;;;;;;-5.19;63.71;96123.47;6245291;28;20049;-75
2023/12/03 06:06:22;;;;;;;5.68;3.50;;;;;;;-5.08;63.27;96152.34;6248695;28;20135;-75
2023/12/03 06:09:28;;;;;;;3.92;2.95;;;;;;;-5.17;63.69;96167.88;6248152;28;20050;-74
2023/12/03 06:12:31;;;;;;;6.55;3.22;;;;;;;-5.18;63.73;96153.34;6248155;28;20049;-73
2023/12/03 06:15:35;;;;;;;3.42;2.53;;;;;;;-5.16;63.91;96172.13;6248469;28;20136;-74
2023/12/03 06:18:39;;;;;;;3.38;2.22;;;;;;;-5.11;63.54;96172.94;6248414;28;20042;-74
2023/12/03 06:21:45;;;;;;;3.80;2.67;;;;;;;-5.06;63.14;96176.28;6247937;28;20522;-74
2023/12/03 06:24:49;;;;;;;3.47;2.38;;;;;;;-4.90;62.07;96176.88;6248136;28;20194;-74
2023/12/03 06:27:50;;;;;;;3.55;2.67;;;;;;;-4.99;62.11;96179.59;6247124;28;20049;-73
2023/12/03 06:30:55;;;;;;;3.08;2.30;;;;;;;-4.89;61.55;96182.88;6247921;28;20478;-74
2023/12/03 06:33:57;;;;;;;6.35;3.28;;;;;;;-5.01;61.82;96200.16;6246955;28;20045;-74
2023/12/03 06:36:59;;;;;;;5.30;2.92;;;;;;;-4.88;61.57;96205.94;6247155;28;20053;-74
2023/12/03 06:40:02;;;;;;;7.35;3.75;;;;;;;-4.88;61.75;96230.75;6247348;28;20057;-74
2023/12/03 06:43:09;;;;;;;5.32;2.95;;;;;;;-4.81;61.74;96240.03;6230524;28;20045;-74
2023/12/03 06:46:16;;;;;;;5.25;2.70;;;;;;;-4.60;61.28;96251.72;6248064;28;20041;-75
2023/12/03 06:49:20;;;;;;;4.13;3.03;;;;;;;-4.52;60.76;96255.00;6247818;28;20041;-73
2023/12/03 06:52:23;;;;;;;4.72;3.30;;;;;;;-4.53;61.09;96267.00;6246607;28;20056;-73
2023/12/03 06:55:27;;;;;;;3.30;2.67;;;;;;;-4.46;61.37;96259.22;6245089;28;20045;-74
2023/12/03 06:58:31;;;;;;;;;;;;;;;-4.32;60.56;96259.84;6248228;28;20042;-73
2023/12/03 07:01:33;;;;;;;3.25;2.33;;;;;;;-4.48;60.67;96260.94;6247353;28;19928;-74
2023/12/03 07:04:39;;;;;;;8.13;3.60;;;;;;;-4.43;61.17;96284.84;6246428;28;20072;-74
2023/12/03 07:07:40;;;;;;;6.47;4.00;;;;;;;-4.24;61.48;96299.09;6246221;28;20045;-74
2023/12/03 07:10:46;;;;;;;7.18;3.15;;;;;;;-1.87;58.99;96298.50;6247376;28;20123;-74
2023/12/03 07:13:48;;;;;;;6.03;3.70;;;;;;;1.85;52.85;96305.47;6246360;28;20049;-73
2023/12/03 07:16:51;;;;;;;4.45;3.42;;;;;;;4.59;47.96;96301.91;6245812;28;20535;-72
2023/12/03 07:19:54;;;;;;;5.07;2.70;;;;;;;6.42;44.46;96312.06;6246346;28;20053;-72
2023/12/03 07:22:57;;;;;;;4.38;2.88;;;;;;;7.54;42.11;96313.28;6245818;28;20594;-71
2023/12/03 07:26:09;;;;;;;4.10;2.35;;;;;;;7.78;41.02;96331.00;6246521;28;20518;-70
2023/12/03 07:29:11;;;;;;;7.15;3.60;;;;;;;8.10;40.58;96331.63;6245961;28;20049;-70
2023/12/03 07:32:16;;;;;;;4.75;2.80;;;;;;;8.51;41.08;96321.09;6245343;28;20045;-69
2023/12/03 07:35:24;;;;;;;4.13;2.50;;;;;;;8.58;39.77;96339.91;6246953;28;20041;-69
2023/12/03 07:38:28;;;;;;;3.10;2.25;;;;;;;7.98;42.23;96343.72;6246597;28;20045;-68
2023/12/03 07:41:31;;;;;;;3.33;2.80;;;;;;;7.82;42.27;96358.72;6245703;28;20041;-68
2023/12/03 07:44:35;;;;;;;3.42;2.72;;;;;;;8.00;41.00;96365.41;6245864;28;20060;-69
2023/12/03 07:47:39;;;;;;;3.28;2.92;;;;;;;8.09;41.80;96350.88;6245527;28;20056;-70
2023/12/03 07:50:45;;;;;;;5.35;3.00;;;;;;;8.65;42.71;96353.47;6245919;28;20152;-69
2023/12/03 07:53:53;;;;;;;2.97;2.20;;;;;;;9.34;42.58;96373.34;6246046;28;20064;-69
2023/12/03 07:56:54;;;;;;;2.88;2.45;;;;;;;9.74;41.97;96370.59;6245334;28;20056;-70
2023/12/03 07:59:59;;;;;;;3.20;2.42;;;;;;;9.21;42.78;96382.97;6228430;28;20103;-70
2023/12/03 08:03:03;;;;;;;3.50;2.80;;;;;;;8.75;43.07;96375.53;6245808;28;20045;-69
2023/12/03 08:06:08;;;;;;;5.05;2.88;;;;;;;8.38;41.23;96383.13;6245483;28;20530;-70
2023/12/03 08:09:12;;;;;;;3.47;2.13;;;;;;;8.64;41.38;96359.66;6227288;28;20533;-71
2023/12/03 08:12:16;;;;;;;3.50;2.67;;;;;;;8.72;40.48;96381.81;6245701;28;20124;-71
2023/12/03 08:15:22;;;;;;;3.38;2.42;;;;;;;9.28;41.56;96389.47;6245677;28;20041;-72
2023/12/03 08:18:24;;;;;;;4.40;2.50;;;;;;;9.66;40.26;96386.03;6244749;28;20056;-73
2023/12/03 08:21:26;;;;;;;2.65;2.45;;;;;;;9.82;40.87;96399.81;6244692;28;20490;-74
2023/12/03 08:24:33;;;;;;;4.07;3.03;;;;;;;10.07;40.34;96413.84;6245370;28;20491;-73
2023/12/03 08:27:37;;;;;;;3.47;2.35;;;;;;;10.95;40.54;96442.66;6244864;28;20045;-73
2023/12/03 08:30:48;;;;;;;6.13;2.92;;;;;;;11.71;39.17;96441.34;6228162;28;20057;-73
2023/12/03 08:33:52;;;;;;;6.65;4.50;;;;;;;12.18;38.50;96449.22;6228380;28;20045;-73
2023/12/03 08:36:59;;;;;;;;;;;;;;;12.32;39.82;96459.53;6245572;28;20049;-72
2023/12/03 08:40:09;;;;;;;3.83;3.42;;;;;;;11.40;41.10;96464.75;6245395;28;19920;-73
2023/12/03 08:43:15;;;;;;;4.53;2.75;;;;;;;11.50;42.09;96470.19;6244881;28;20053;-73
2023/12/03 08:46:20;;;;;;;3.28;2.55;;;;;;;11.67;42.36;96488.19;6244878;28;20053;-74
2023/12/03 08:49:26;;;;;;;3.78;2.67;;;;;;;11.22;40.01;96477.50;6244987;28;20462;-74
2023/12/03 08:52:33;;;;;;;2.63;2.40;;;;;;;10.73;38.44;96483.69;6244667;28;20140;-73
2023/12/03 08:55:37;;;;;;;4.28;2.30;;;;;;;10.20;40.09;96492.72;6244836;28;20049;-76
2023/12/03 08:58:42;;;;;;;3.05;2.40;;;;;;;9.99;41.55;96495.00;6244015;28;20049;-75
2023/12/03 09:01:48;;;;;;;3.42;2.50;;;;;;;9.72;40.36;96493.31;6244363;28;20052;-75
2023/12/03 09:04:54;;;;;;;3.42;2.42;;;;;;;9.74;42.00;96501.97;6244870;28;20045;-78
2023/12/03 09:07:56;;;;;;;3.72;2.28;;;;;;;9.65;39.52;96505.19;6244640;28;20052;-75
2023/12/03 09:11:00;;;;;;;3.38;2.50;;;;;;;9.15;38.08;96512.00;6244885;28;20044;-73
2023/12/03 09:14:05;;;;;;;4.75;2.60;;;;;;;8.58;37.38;96517.38;6244711;28;20049;-74
2023/12/03 09:17:07;;;;;;;3.47;2.72;;;;;;;8.34;38.76;96544.16;6244056;28;20072;-73
2023/12/03 09:20:10;;;;;;;4.40;2.50;;;;;;;8.38;39.39;96543.03;6243425;28;20446;-74
2023/12/03 09:23:14;;;;;;;5.57;3.72;;;;;;;8.88;39.38;96552.19;6244389;28;20452;-74
2023/12/03 09:26:16;;;;;;;5.85;3.35;;;;;;;8.81;38.75;96553.53;6243001;28;20056;-76
2023/12/03 09:29:20;;;;;;;7.05;3.60;;;;;;;9.19;39.07;96569.44;6244038;28;20179;-74
2023/12/03 09:32:27;;;;;;;4.63;3.20;;;;;;;8.74;35.90;96570.56;6243624;28;20518;-74
2023/12/03 09:35:32;;;;;;;4.85;2.95;;;;;;;8.49;35.63;96564.25;6243528;28;20041;-74
2023/12/03 09:38:38;;;;;;;5.18;2.92;;;;;;;7.99;33.66;96573.34;6246589;28;20503;-76
2023/12/03 09:41:51;;;;;;;3.88;2.67;;;;;;;7.97;34.64;96576.97;6249562;28;20545;-77
2023/12/03 09:45:04;;;;;;;4.03;2.17;;;;;;;8.12;34.46;96562.09;6248980;28;20487;-77
2023/12/03 09:48:34;;;;;;;5.55;3.30;;;;;;;8.29;35.08;96562.81;6248049;28;20057;-76
2023/12/03 09:51:44;;;;;;;3.03;2.40;;;;;;;8.50;34.17;96565.91;6248927;28;20426;-74
2023/12/03 09:54:48;;;;;;;5.50;2.97;;;;;;;7.61;32.35;96563.34;6272346;28;20139;-72
2023/12/03 09:57:59;;;;;;;6.20;3.72;;;;;;;7.01;32.78;96571.09;6273901;28;20548;-71
2023/12/03 10:01:04;;;;;;;6.00;3.88;;;;;;;5.93;34.81;96585.53;6273681;28;20057;-72
2023/12/03 10:04:08;;;;;;;6.88;4.22;;;;;;;3.57;38.05;96585.13;6273450;28;20053;-71
2023/12/03 10:07:13;;;;;;;5.40;3.15;;;;;;;1.52;41.26;96596.28;6273093;28;20044;-71
2023/12/03 10:10:20;;;;;;;4.85;3.60;;;;;;;0.24;43.65;96613.22;6273486;28;20045;-72
2023/12/03 10:13:27;;;;;;;4.32;2.70;;;;;;;-0.67;45.62;96615.59;6273591;28;20048;-71
2023/12/03 10:16:31;;;;;;;5.43;2.42;;;;;;;-1.36;46.63;96625.78;6272499;28;20048;-72
2023/12/03 10:19:36;;;;;;;;;;;;;;;-1.83;47.33;96631.94;6272816;28;20052;-70
2023/12/03 10:22:38;;;;;;;5.28;2.60;;;;;;;-2.35;48.60;96641.50;6272734;28;19965;-71
2023/12/03 10:25:40;;;;;;;3.42;2.63;;;;;;;-2.59;50.10;96641.94;6273289;28;20128;-71
2023/12/03 10:28:43;;;;;;;;;;;;;;;-2.64;49.91;96656.59;6273458;28;20049;-71
2023/12/03 10:31:49;;;;;;;6.07;2.67;;;;;;;-2.74;50.42;96661.91;6273052;28;20305;-71
2023/12/03 10:34:54;;;;;;;4.33;2.73;;;;;;;-2.79;51.09;96674.00;6272032;28;20521;-72
2023/12/03 10:38:01;;;;;;;6.10;2.97;;;;;;;-2.90;51.20;96673.31;6272814;28;20040;-71
2023/12/03 10:41:16;;;;;;;3.58;2.60;;;;;;;-2.89;50.80;96680.16;6273245;28;20541;-70
2023/12/03 10:44:24;;;;;;;6.07;2.63;;;;;;;-2.92;50.91;96700.78;6272795;28;20071;-71
2023/12/03 10:47:26;;;;;;;7.22;3.60;;;;;;;-3.10;51.66;96699.34;6254363;28;20045;-70
2023/12/03 10:50:30;;;;;;;4.07;3.25;;;;;;;-3.13;51.44;96707.13;6271041;28;20474;-70
2023/12/03 10:53:33;;;;;;;4.45;3.20;;;;;;;-3.36;52.04;96710.00;6257743;28;20176;-70
2023/12/03 10:56:40;;;;;;;4.70;2.75;;;;;;;-3.38;51.95;96722.00;6247500;28;20064;-71
2023/12/03 10:59:50;;;;;;;3.63;2.83;;;;;;;-3.50;51.72;96722.19;6246897;28;20427;-70
2023/12/03 11:03:08;;;;;;;5.68;3.47;;;;;;;-3.58;51.70;96731.69;6229478;28;20049;-71
2023/12/03 11:06:15;;;;;;;5.50;3.00;;;;;;;-3.85;52.02;96720.84;6246928;28;20055;-71
2023/12/03 11:09:22;;;;;;;6.38;2.92;;;;;;;-4.01;52.71;96742.44;6247115;28;20050;-71
2023/12/03 11:12:30;;;;;;;5.72;3.00;;;;;;;-4.13;52.91;96746.81;6247195;28;20041;-70
2023/12/03 11:15:34;;;;;;;6.75;3.60;;;;;;;-4.34;53.25;96736.72;6247386;28;20049;-70
2023/12/03 11:19:00;;;;;;;7.03;3.55;;;;;;;-4.45;54.06;96753.94;6247334;28;20037;-69
2023/12/03 11:22:35;;;;;;;7.35;4.00;;;;;;;-4.63;54.70;96760.94;6247170;28;20070;-71
2023/12/03 11:25:49;;;;;;;6.22;3.90;;;;;;;-4.71;54.77;96778.09;6246344;28;20073;-71
2023/12/03 11:28:57;;;;;;;7.30;4.20;;;;;;;-4.80;55.19;96799.53;6246602;28;20435;-70
2023/12/03 11:32:01;;;;;;;8.93;4.88;;;;;;;-4.91;55.12;96811.56;6246624;28;20041;-72
2023/12/03 11:35:13;;;;;;;7.45;4.32;;;;;;;-5.02;55.73;96833.88;6246656;28;20037;-71
2023/12/03 11:38:19;;;;;;;8.27;4.30;;;;;;;-5.15;56.54;96843.34;6246615;28;20152;-70
2023/12/03 11:41:24;;;;;;;6.35;3.92;;;;;;;-5.23;57.05;96835.66;6246287;28;20622;-72
2023/12/03 11:44:30;;;;;;;8.75;4.13;;;;;;;-5.35;57.36;96834.84;6245755;28;20058;-70
2023/12/03 11:47:32;;;;;;;7.22;3.78;;;;;;;-5.23;56.39;96837.38;6246282;28;20041;-70
2023/12/03 11:50:41;;;;;;;5.32;3.20;;;;;;;-5.23;56.44;96838.22;6246259;28;20041;-71
2023/12/03 11:53:59;;;;;;;6.88;4.28;;;;;;;-5.12;55.63;96835.63;6245111;28;20427;-71
2023/12/03 11:57:01;;;;;;;10.70;6.13;;;;;;;-5.32;56.29;96845.09;6245254;28;20435;-72
2023/12/03 12:00:06;;;;;;;8.32;5.07;;;;;;;-5.40;55.74;96857.09;6245409;28;20427;-71
2023/12/03 12:03:10;;;;;;;10.77;5.80;;;;;;;-5.62;56.81;96869.94;6245915;28;20042;-70
2023/12/03 12:06:23;;;;;;;12.05;5.68;;;;;;;-5.81;57.21;96883.63;6245077;28;20057;-71
2023/12/03 12:09:25;;;;;;;12.02;6.60;;;;;;;-5.98;57.69;96899.88;6246024;28;20037;-72
2023/12/03 12:12:32;;;;;;;8.48;5.60;;;;;;;-5.88;57.50;96901.56;6245689;28;20049;-70
2023/12/03 12:15:36;;;;;;;10.57;6.18;;;;;;;-5.93;56.67;96893.03;6227572;28;20053;-70
2023/12/03 12:18:43;;;;;;;7.28;5.00;;;;;;;-6.14;57.22;96881.13;6245354;28;20534;-71
2023/12/03 12:21:57;;;;;;;8.02;5.13;;;;;;;-6.22;57.45;96892.22;6244509;28;20541;-70
2023/12/03 12:24:59;;;;;;;9.93;5.07;;;;;;;-6.21;57.37;96906.72;6244012;28;20435;-72
2023/12/03 12:28:01;;;;;;;6.35;3.63;;;;;;;-6.26;57.86;96922.06;6244433;28;20064;-70
2023/12/03 12:31:11;;;;;;;5.20;3.20;;;;;;;-6.29;57.65;96928.88;6245298;28;20041;-71
2023/12/03 12:34:14;;;;;;;6.97;4.05;;;;;;;-6.37;58.38;96932.31;6244440;28;20045;-72
2023/12/03 12:37:24;;;;;;;9.43;5.28;;;;;;;-6.50;58.55;96938.22;6244774;28;20053;-71
2023/12/03 12:40:38;;;;;;;7.75;4.95;;;;;;;-6.49;58.74;96947.59;6227575;28;20045;-72
2023/12/03 12:43:59;;;;;;;6.85;5.10;;;;;;;-6.46;58.66;96939.94;6244727;28;20128;-71
2023/12/03 12:47:02;;;;;;;13.88;7.28;;;;;;;-6.50;58.57;96930.56;6244613;28;20495;-72
2023/12/03 12:50:04;;;;;;;13.20;7.38;;;;;;;-6.49;58.49;96927.13;6243944;28;20435;-71
2023/12/03 12:53:08;;;;;;;13.00;7.63;;;;;;;-6.51;58.11;96923.72;6241106;28;20549;-71
2023/12/03 12:56:12;;;;;;;;;;;;;;;-6.47;58.21;96929.72;6270155;28;20052;-71
2023/12/03 12:59:15;;;;;;;11.15;5.25;;;;;;;-6.56;58.23;96936.50;6268461;28;20116;-72
2023/12/03 13:02:23;;;;;;;8.60;5.22;;;;;;;-6.79;58.83;96949.22;6269652;28;20087;-72
2023/12/03 13:05:25;;;;;;;8.85;4.88;;;;;;;-6.89;59.01;96959.41;6268991;28;20450;-71
2023/12/03 13:08:29;;;;;;;10.18;5.57;;;;;;;-7.00;58.96;96969.56;6269587;28;20048;-71
2023/12/03 13:11:34;;;;;;;21.52;11.48;;;;;;;-7.15;60.28;96974.59;6268845;28;20048;-71
2023/12/03 13:14:39;;;;;;;12.02;7.43;;;;;;;-7.13;60.30;96978.00;6267488;28;20128;-72
2023/12/03 13:17:59;;;;;;;9.48;5.97;;;;;;;-7.03;60.42;96967.00;6267641;28;20041;-71
2023/12/03 13:21:12;;;;;;;7.53;4.70;;;;;;;-7.00;59.74;96949.09;6267954;28;20059;-72
2023/12/03 13:24:16;;;;;;;7.65;4.35;;;;;;;-6.96;60.02;96950.84;6268482;28;20422;-71
2023/12/03 13:27:23;;;;;;;6.18;4.25;;;;;;;-6.92;59.68;96962.78;6269814;28;20045;-72
2023/12/03 13:30:24;;;;;;;6.78;4.50;;;;;;;-6.97;60.05;96959.34;6268945;28;20052;-71
2023/12/03 13:33:29;;;;;;;7.20;4.50;;;;;;;-7.00;60.07;96979.78;6269201;28;20086;-71
2023/12/03 13:36:35;;;;;;;6.20;4.78;;;;;;;-7.03;60.07;96984.91;6269174;28;20041;-71
2023/12/03 13:39:42;;;;;;;7.35;4.95;;;;;;;-7.11;60.35;96987.41;6269233;28;20045;-71
2023/12/03 13:42:53;;;;;;;8.13;4.90;;;;;;;-7.10;59.87;96983.16;6268804;28;20672;-71
2023/12/03 13:45:57;;;;;;;8.23;4.90;;;;;;;-7.24;59.77;96981.38;6268903;28;20413;-70
2023/12/03 13:49:05;;;;;;;10.27;4.90;;;;;;;-7.33;60.63;96990.66;6268548;28;20057;-72
2023/12/03 13:52:11;;;;;;;7.15;4.88;;;;;;;-7.35;60.64;96993.22;6265977;28;20434;-71
2023/12/03 13:55:19;;;;;;;7.65;4.68;;;;;;;-7.41;60.79;96997.44;6244396;28;20092;-70
2023/12/03 13:58:23;;;;;;;8.98;4.88;;;;;;;-7.40;60.96;97000.00;6244178;28;20046;-72
2023/12/03 14:01:28;;;;;;;7.25;5.10;;;;;;;-7.39;60.50;97011.06;6243281;28;20057;-71
2023/12/03 14:04:36;;;;;;;6.75;4.85;;;;;;;-7.49;61.43;97020.38;6243664;28;20045;-70
2023/12/03 14:07:42;;;;;;;6.32;4.53;;;;;;;-7.53;61.48;97028.84;6243406;28;20053;-71
2023/12/03 14:10:49;;;;;;;10.02;5.32;;;;;;;-7.59;61.81;97021.13;6244032;28;20053;-71
2023/12/03 14:13:50;;;;;;;5.68;4.53;;;;;;;-7.76;62.25;97019.28;6243205;28;20053;-70
2023/12/03 14:16:59;;;;;;;5.50;3.60;;;;;;;-7.76;61.85;97032.06;6243807;28;20037;-70
2023/12/03 14:20:04;;;;;;;5.90;4.28;;;;;;;-7.75;62.38;97044.00;6244015;28;20136;-70
2023/12/03 14:23:06;;;;;;;5.87;4.03;;;;;;;-7.87;62.81;97036.19;6243550;28;20119;-73
2023/12/03 14:26:14;;;;;;;4.28;3.55;;;;;;;-7.96;62.30;97044.63;6247529;28;20053;-71
2023/12/03 14:29:19;;;;;;;7.72;4.22;;;;;;;-7.92;62.50;97061.72;6247787;28;20054;-71
2023/12/03 14:32:27;;;;;;;6.00;4.32;;;;;;;-7.95;62.72;97051.47;6248348;28;20060;-70
2023/12/03 14:35:36;;;;;;;5.80;4.22;;;;;;;-7.96;62.34;97074.44;6248356;28;20499;-70